sensor_id;sensor_type;location;lat;lon;timestamp;pressure;altitude;pressure_sealevel;temperature;humidity
1726;BME280;41776;48.260;8.928;2023-09-19T00:01:48;52117.63;;;-145.69;80.21
1726;BME280;41776;48.260;8.928;2023-09-19T00:04:16;52139.41;;;-145.69;79.09
1726;BME280;41776;48.260;8.928;2023-09-19T00:06:48;52143.38;;;-145.69;79.45
1726;BME280;41776;48.260;8.928;2023-09-19T00:09:15;52131.50;;;-145.69;79.54
1726;BME280;41776;48.260;8.928;2023-09-19T00:11:49;52119.63;;;-145.69;79.77
1726;BME280;41776;48.260;8.928;2023-09-19T00:14:16;52087.94;;;-145.69;80.28
1726;BME280;41776;48.260;8.928;2023-09-19T00:16:43;52143.38;;;-145.69;80.11
1726;BME280;41776;48.260;8.928;2023-09-19T00:19:14;52173.09;;;-145.69;81.46
1726;BME280;41776;48.260;8.928;2023-09-19T00:21:42;52147.34;;;-145.69;82.13
1726;BME280;41776;48.260;8.928;2023-09-19T00:24:11;52125.56;;;-145.69;82.13
1726;BME280;41776;48.260;8.928;2023-09-19T00:26:38;52143.38;;;-145.69;82.55
1726;BME280;41776;48.260;8.928;2023-09-19T00:29:04;52161.19;;;-145.69;82.22
1726;BME280;41776;48.260;8.928;2023-09-19T00:31:34;52159.22;;;-145.69;81.75
1726;BME280;41776;48.260;8.928;2023-09-19T00:34:07;52133.47;;;-145.69;82.72
1726;BME280;41776;48.260;8.928;2023-09-19T00:36:35;52153.28;;;-145.69;82.35
1726;BME280;41776;48.260;8.928;2023-09-19T00:39:05;52157.25;;;-145.69;82.18
1726;BME280;41776;48.260;8.928;2023-09-19T00:41:33;52139.41;;;-145.69;81.89
1726;BME280;41776;48.260;8.928;2023-09-19T00:44:04;52125.56;;;-145.69;81.69
1726;BME280;41776;48.260;8.928;2023-09-19T00:46:31;52127.53;;;-145.69;82.31
1726;BME280;41776;48.260;8.928;2023-09-19T00:48:58;52117.63;;;-145.69;82.23
1726;BME280;41776;48.260;8.928;2023-09-19T00:51:27;52117.63;;;-145.69;85.29
1726;BME280;41776;48.260;8.928;2023-09-19T00:54:00;52139.41;;;-145.69;83.72
1726;BME280;41776;48.260;8.928;2023-09-19T00:56:31;52113.66;;;-145.69;82.95
1726;BME280;41776;48.260;8.928;2023-09-19T00:58:58;52119.63;;;-145.69;82.70
1726;BME280;41776;48.260;8.928;2023-09-19T01:01:24;52115.66;;;-145.69;82.43
1726;BME280;41776;48.260;8.928;2023-09-19T01:03:51;52109.72;;;-145.69;81.79
1726;BME280;41776;48.260;8.928;2023-09-19T01:06:19;52159.22;;;-145.69;81.38
1726;BME280;41776;48.260;8.928;2023-09-19T01:08:46;52139.41;;;-145.69;81.23
1726;BME280;41776;48.260;8.928;2023-09-19T01:11:21;52143.38;;;-145.69;81.62
1726;BME280;41776;48.260;8.928;2023-09-19T01:14:01;52099.81;;;-145.69;81.36
1726;BME280;41776;48.260;8.928;2023-09-19T01:16:35;52143.38;;;-145.69;81.94
1726;BME280;41776;48.260;8.928;2023-09-19T01:19:32;52131.50;;;-145.69;81.71
1726;BME280;41776;48.260;8.928;2023-09-19T01:22:15;52143.38;;;-145.69;82.47
1726;BME280;41776;48.260;8.928;2023-09-19T01:25:07;52155.25;;;-145.69;82.29
1726;BME280;41776;48.260;8.928;2023-09-19T01:27:58;52117.63;;;-145.69;82.01
1726;BME280;41776;48.260;8.928;2023-09-19T01:30:35;52145.34;;;-145.69;82.40
1726;BME280;41776;48.260;8.928;2023-09-19T01:33:06;52149.31;;;-145.69;82.44
1726;BME280;41776;48.260;8.928;2023-09-19T01:35:42;52149.31;;;-145.69;81.97
1726;BME280;41776;48.260;8.928;2023-09-19T01:38:11;52151.28;;;-145.69;81.69
1726;BME280;41776;48.260;8.928;2023-09-19T01:40:41;52125.56;;;-145.69;81.36
1726;BME280;41776;48.260;8.928;2023-09-19T01:43:13;52131.50;;;-145.69;80.74
1726;BME280;41776;48.260;8.928;2023-09-19T01:45:48;52107.72;;;-145.69;80.93
1726;BME280;41776;48.260;8.928;2023-09-19T01:48:25;52127.53;;;-145.69;80.81
1726;BME280;41776;48.260;8.928;2023-09-19T01:50:59;52111.69;;;-145.69;80.56
1726;BME280;41776;48.260;8.928;2023-09-19T01:53:28;52127.53;;;-145.69;80.65
1726;BME280;41776;48.260;8.928;2023-09-19T01:55:58;52155.25;;;-145.69;79.21
1726;BME280;41776;48.260;8.928;2023-09-19T01:58:30;52137.44;;;-145.69;77.43
1726;BME280;41776;48.260;8.928;2023-09-19T02:01:01;52141.41;;;-145.69;78.50
1726;BME280;41776;48.260;8.928;2023-09-19T02:03:29;52165.16;;;-145.69;79.17
1726;BME280;41776;48.260;8.928;2023-09-19T02:05:59;52129.50;;;-145.69;78.23
1726;BME280;41776;48.260;8.928;2023-09-19T02:08:28;52145.34;;;-145.69;78.36
1726;BME280;41776;48.260;8.928;2023-09-19T02:10:59;52159.22;;;-145.69;77.57
1726;BME280;41776;48.260;8.928;2023-09-19T02:13:26;52147.34;;;-145.69;77.57
1726;BME280;41776;48.260;8.928;2023-09-19T02:15:53;52145.34;;;-145.69;77.84
1726;BME280;41776;48.260;8.928;2023-09-19T02:18:22;52129.50;;;-145.69;79.75
1726;BME280;41776;48.260;8.928;2023-09-19T02:20:48;52159.22;;;-145.69;78.87
1726;BME280;41776;48.260;8.928;2023-09-19T02:23:16;52155.25;;;-145.69;78.92
1726;BME280;41776;48.260;8.928;2023-09-19T02:25:52;52161.19;;;-145.69;79.46
1726;BME280;41776;48.260;8.928;2023-09-19T02:28:18;52129.50;;;-145.69;79.55
1726;BME280;41776;48.260;8.928;2023-09-19T02:30:50;52131.50;;;-145.69;79.28
1726;BME280;41776;48.260;8.928;2023-09-19T02:33:16;52153.28;;;-145.69;79.71
1726;BME280;41776;48.260;8.928;2023-09-19T02:35:47;52147.34;;;-145.69;80.00
1726;BME280;41776;48.260;8.928;2023-09-19T02:38:16;52091.88;;;-145.69;79.71
1726;BME280;41776;48.260;8.928;2023-09-19T02:40:46;52155.25;;;-145.69;79.58
1726;BME280;41776;48.260;8.928;2023-09-19T02:43:13;52155.25;;;-145.69;79.65
1726;BME280;41776;48.260;8.928;2023-09-19T02:45:39;52135.47;;;-145.69;79.57
1726;BME280;41776;48.260;8.928;2023-09-19T02:48:12;52115.66;;;-145.69;79.84
1726;BME280;41776;48.260;8.928;2023-09-19T02:50:41;52139.41;;;-145.69;80.29
1726;BME280;41776;48.260;8.928;2023-09-19T02:53:10;52135.47;;;-145.69;80.76
1726;BME280;41776;48.260;8.928;2023-09-19T02:55:40;52147.34;;;-145.69;80.85
1726;BME280;41776;48.260;8.928;2023-09-19T02:58:09;52127.53;;;-145.69;80.81
1726;BME280;41776;48.260;8.928;2023-09-19T03:00:39;52159.22;;;-145.69;80.60
1726;BME280;41776;48.260;8.928;2023-09-19T03:03:14;52157.25;;;-145.69;80.58
1726;BME280;41776;48.260;8.928;2023-09-19T03:05:43;52155.25;;;-145.69;80.59
1726;BME280;41776;48.260;8.928;2023-09-19T03:08:20;52123.56;;;-145.69;80.54
1726;BME280;41776;48.260;8.928;2023-09-19T03:10:47;52141.41;;;-145.69;80.33
1726;BME280;41776;48.260;8.928;2023-09-19T03:13:14;52145.34;;;-145.69;80.49
1726;BME280;41776;48.260;8.928;2023-09-19T03:15:44;52186.94;;;-145.69;79.79
1726;BME280;41776;48.260;8.928;2023-09-19T03:18:11;52155.25;;;-145.69;79.91
1726;BME280;41776;48.260;8.928;2023-09-19T03:20:38;52151.28;;;-145.69;78.40
1726;BME280;41776;48.260;8.928;2023-09-19T03:23:05;52093.88;;;-145.69;79.58
1726;BME280;41776;48.260;8.928;2023-09-19T03:25:35;52133.47;;;-145.69;79.41
1726;BME280;41776;48.260;8.928;2023-09-19T03:28:02;52135.47;;;-145.69;80.04
1726;BME280;41776;48.260;8.928;2023-09-19T03:30:31;52131.50;;;-145.69;80.03
1726;BME280;41776;48.260;8.928;2023-09-19T03:32:58;52123.56;;;-145.69;79.99
1726;BME280;41776;48.260;8.928;2023-09-19T03:35:28;52155.25;;;-145.69;79.75
1726;BME280;41776;48.260;8.928;2023-09-19T03:37:55;52143.38;;;-145.69;79.85
1726;BME280;41776;48.260;8.928;2023-09-19T03:40:24;52139.41;;;-145.69;80.22
1726;BME280;41776;48.260;8.928;2023-09-19T03:42:52;52135.47;;;-145.69;80.54
1726;BME280;41776;48.260;8.928;2023-09-19T03:45:22;52135.47;;;-145.69;80.83
1726;BME280;41776;48.260;8.928;2023-09-19T03:47:51;52143.38;;;-145.69;81.08
1726;BME280;41776;48.260;8.928;2023-09-19T03:50:18;52115.66;;;-145.69;81.80
1726;BME280;41776;48.260;8.928;2023-09-19T03:52:44;52171.09;;;-145.69;81.49
1726;BME280;41776;48.260;8.928;2023-09-19T03:55:13;52137.44;;;-145.69;81.61
1726;BME280;41776;48.260;8.928;2023-09-19T03:57:46;52123.56;;;-145.69;81.76
1726;BME280;41776;48.260;8.928;2023-09-19T04:00:16;52141.41;;;-145.69;81.43
1726;BME280;41776;48.260;8.928;2023-09-19T04:02:46;52131.50;;;-145.69;81.30
1726;BME280;41776;48.260;8.928;2023-09-19T04:05:13;52179.03;;;-145.69;81.05
1726;BME280;41776;48.260;8.928;2023-09-19T04:07:45;52119.63;;;-145.69;81.13
1726;BME280;41776;48.260;8.928;2023-09-19T04:10:12;52155.25;;;-145.69;80.95
1726;BME280;41776;48.260;8.928;2023-09-19T04:12:40;52167.13;;;-145.69;81.25
1726;BME280;41776;48.260;8.928;2023-09-19T04:15:09;52157.25;;;-145.69;81.71
1726;BME280;41776;48.260;8.928;2023-09-19T04:17:39;52111.69;;;-145.69;81.46
1726;BME280;41776;48.260;8.928;2023-09-19T04:20:07;52175.06;;;-145.69;81.09
1726;BME280;41776;48.260;8.928;2023-09-19T04:22:34;52184.97;;;-145.69;81.42
1726;BME280;41776;48.260;8.928;2023-09-19T04:25:03;52179.03;;;-145.69;81.23
1726;BME280;41776;48.260;8.928;2023-09-19T04:27:36;52155.25;;;-145.69;81.51
1726;BME280;41776;48.260;8.928;2023-09-19T04:30:04;52161.19;;;-145.69;80.82
1726;BME280;41776;48.260;8.928;2023-09-19T04:32:35;52155.25;;;-145.69;83.24
1726;BME280;41776;48.260;8.928;2023-09-19T04:35:10;52179.03;;;-145.69;83.13
1726;BME280;41776;48.260;8.928;2023-09-19T04:37:40;52171.09;;;-145.69;82.59
1726;BME280;41776;48.260;8.928;2023-09-19T04:40:08;52141.41;;;-145.69;83.49
1726;BME280;41776;48.260;8.928;2023-09-19T04:42:42;52190.91;;;-145.69;83.47
1726;BME280;41776;48.260;8.928;2023-09-19T04:45:09;52181.00;;;-145.69;82.35
1726;BME280;41776;48.260;8.928;2023-09-19T04:47:36;52171.09;;;-145.69;81.33
1726;BME280;41776;48.260;8.928;2023-09-19T04:50:06;52182.97;;;-145.69;81.29
1726;BME280;41776;48.260;8.928;2023-09-19T04:52:35;52192.88;;;-145.69;82.79
1726;BME280;41776;48.260;8.928;2023-09-19T04:55:11;52177.03;;;-145.69;82.94
1726;BME280;41776;48.260;8.928;2023-09-19T04:57:42;52212.69;;;-145.69;81.94
1726;BME280;41776;48.260;8.928;2023-09-19T05:00:11;52188.91;;;-145.69;81.98
1726;BME280;41776;48.260;8.928;2023-09-19T05:02:39;52181.00;;;-145.69;82.36
1726;BME280;41776;48.260;8.928;2023-09-19T05:05:07;52173.09;;;-145.69;81.92
1726;BME280;41776;48.260;8.928;2023-09-19T05:07:35;52155.25;;;-145.69;82.90
1726;BME280;41776;48.260;8.928;2023-09-19T05:10:05;52194.88;;;-145.69;82.60
1726;BME280;41776;48.260;8.928;2023-09-19T05:12:32;52222.59;;;-145.69;82.84
1726;BME280;41776;48.260;8.928;2023-09-19T05:14:59;52159.22;;;-145.69;82.75
1726;BME280;41776;48.260;8.928;2023-09-19T05:17:31;52186.94;;;-145.69;82.46
1726;BME280;41776;48.260;8.928;2023-09-19T05:19:58;52169.13;;;-145.69;82.40
1726;BME280;41776;48.260;8.928;2023-09-19T05:22:26;52186.94;;;-145.69;84.80
1726;BME280;41776;48.260;8.928;2023-09-19T05:25:00;52181.00;;;-145.69;85.41
1726;BME280;41776;48.260;8.928;2023-09-19T05:27:29;52157.25;;;-145.69;85.39
1726;BME280;41776;48.260;8.928;2023-09-19T05:29:59;52206.75;;;-145.69;84.68
1726;BME280;41776;48.260;8.928;2023-09-19T05:32:29;52198.81;;;-145.69;85.46
1726;BME280;41776;48.260;8.928;2023-09-19T05:34:55;52155.25;;;-145.69;85.38
1726;BME280;41776;48.260;8.928;2023-09-19T05:37:22;52163.19;;;-145.69;84.95
1726;BME280;41776;48.260;8.928;2023-09-19T05:39:51;52175.06;;;-145.69;85.19
1726;BME280;41776;48.260;8.928;2023-09-19T05:42:19;52159.22;;;-145.69;84.74
1726;BME280;41776;48.260;8.928;2023-09-19T05:44:46;52184.97;;;-145.69;84.82
1726;BME280;41776;48.260;8.928;2023-09-19T05:47:12;52179.03;;;-145.69;84.78
1726;BME280;41776;48.260;8.928;2023-09-19T05:49:39;52163.19;;;-145.69;84.97
1726;BME280;41776;48.260;8.928;2023-09-19T05:52:06;52157.25;;;-145.69;85.20
1726;BME280;41776;48.260;8.928;2023-09-19T05:54:32;52151.28;;;-145.69;84.92
1726;BME280;41776;48.260;8.928;2023-09-19T05:56:59;52171.09;;;-145.69;85.31
1726;BME280;41776;48.260;8.928;2023-09-19T05:59:28;52149.31;;;-145.69;85.75
1726;BME280;41776;48.260;8.928;2023-09-19T06:01:55;52157.25;;;-145.69;85.52
1726;BME280;41776;48.260;8.928;2023-09-19T06:04:21;52181.00;;;-145.69;85.31
1726;BME280;41776;48.260;8.928;2023-09-19T06:06:48;52175.06;;;-145.69;84.97
1726;BME280;41776;48.260;8.928;2023-09-19T06:09:14;52171.09;;;-145.69;84.85
1726;BME280;41776;48.260;8.928;2023-09-19T06:11:41;52139.41;;;-145.69;84.75
1726;BME280;41776;48.260;8.928;2023-09-19T06:14:08;52139.41;;;-145.69;83.26
1726;BME280;41776;48.260;8.928;2023-09-19T06:16:36;52161.19;;;-145.69;82.58
1726;BME280;41776;48.260;8.928;2023-09-19T06:19:04;52167.13;;;-145.69;83.98
1726;BME280;41776;48.260;8.928;2023-09-19T06:21:34;52131.50;;;-145.69;83.63
1726;BME280;41776;48.260;8.928;2023-09-19T06:24:00;52153.28;;;-145.69;84.05
1726;BME280;41776;48.260;8.928;2023-09-19T06:26:27;52165.16;;;-145.69;84.25
1726;BME280;41776;48.260;8.928;2023-09-19T06:28:54;52127.53;;;-145.69;84.12
1726;BME280;41776;48.260;8.928;2023-09-19T06:31:21;52163.19;;;-145.69;84.26
1726;BME280;41776;48.260;8.928;2023-09-19T06:33:49;52131.50;;;-145.69;83.67
1726;BME280;41776;48.260;8.928;2023-09-19T06:36:16;52165.16;;;-145.69;83.95
1726;BME280;41776;48.260;8.928;2023-09-19T06:38:42;52139.41;;;-145.69;84.52
1726;BME280;41776;48.260;8.928;2023-09-19T06:41:08;52149.31;;;-145.69;83.77
1726;BME280;41776;48.260;8.928;2023-09-19T06:43:35;52177.03;;;-145.69;84.00
1726;BME280;41776;48.260;8.928;2023-09-19T06:46:02;52153.28;;;-145.69;86.20
1726;BME280;41776;48.260;8.928;2023-09-19T06:48:29;52135.47;;;-145.69;83.24
1726;BME280;41776;48.260;8.928;2023-09-19T06:50:57;52147.34;;;-145.69;83.68
1726;BME280;41776;48.260;8.928;2023-09-19T06:53:29;52129.50;;;-145.69;80.93
1726;BME280;41776;48.260;8.928;2023-09-19T06:55:57;52155.25;;;-145.69;80.76
1726;BME280;41776;48.260;8.928;2023-09-19T06:58:23;52179.03;;;-145.69;82.92
1726;BME280;41776;48.260;8.928;2023-09-19T07:00:49;52137.44;;;-145.69;81.57
1726;BME280;41776;48.260;8.928;2023-09-19T07:03:16;52163.19;;;-145.69;83.60
1726;BME280;41776;48.260;8.928;2023-09-19T07:05:44;52159.22;;;-145.69;84.02
1726;BME280;41776;48.260;8.928;2023-09-19T07:08:12;52143.38;;;-145.69;81.69
1726;BME280;41776;48.260;8.928;2023-09-19T07:10:38;52127.53;;;-145.69;83.42
1726;BME280;41776;48.260;8.928;2023-09-19T07:13:07;52151.28;;;-145.69;82.92
1726;BME280;41776;48.260;8.928;2023-09-19T07:15:36;52135.47;;;-145.69;80.95
1726;BME280;41776;48.260;8.928;2023-09-19T07:18:05;52163.19;;;-145.69;85.80
1726;BME280;41776;48.260;8.928;2023-09-19T07:20:32;52103.78;;;-145.69;83.34
1726;BME280;41776;48.260;8.928;2023-09-19T07:22:59;52097.84;;;-145.69;86.19
1726;BME280;41776;48.260;8.928;2023-09-19T07:25:28;52119.63;;;-145.69;81.85
1726;BME280;41776;48.260;8.928;2023-09-19T07:27:55;52107.72;;;-145.69;83.27
1726;BME280;41776;48.260;8.928;2023-09-19T07:30:21;52151.28;;;-145.69;78.22
1726;BME280;41776;48.260;8.928;2023-09-19T07:32:48;52149.31;;;-145.69;80.04
1726;BME280;41776;48.260;8.928;2023-09-19T07:35:15;52171.09;;;-145.69;77.96
1726;BME280;41776;48.260;8.928;2023-09-19T07:37:42;52159.22;;;-145.69;80.00
1726;BME280;41776;48.260;8.928;2023-09-19T07:40:09;52167.13;;;-145.69;80.18
1726;BME280;41776;48.260;8.928;2023-09-19T07:42:37;52121.59;;;-145.69;78.78
1726;BME280;41776;48.260;8.928;2023-09-19T07:45:06;52186.94;;;-145.69;78.31
1726;BME280;41776;48.260;8.928;2023-09-19T07:47:34;52163.19;;;-145.69;80.68
1726;BME280;41776;48.260;8.928;2023-09-19T07:50:01;52208.72;;;-145.69;81.01
1726;BME280;41776;48.260;8.928;2023-09-19T07:52:28;52163.19;;;-145.69;82.58
1726;BME280;41776;48.260;8.928;2023-09-19T07:54:55;52190.91;;;-145.69;83.55
1726;BME280;41776;48.260;8.928;2023-09-19T07:57:22;52198.81;;;-145.69;83.32
1726;BME280;41776;48.260;8.928;2023-09-19T07:59:50;52163.19;;;-145.69;84.04
1726;BME280;41776;48.260;8.928;2023-09-19T08:02:16;52190.91;;;-145.69;83.59
1726;BME280;41776;48.260;8.928;2023-09-19T08:04:43;52179.03;;;-145.69;84.21
1726;BME280;41776;48.260;8.928;2023-09-19T08:07:15;52179.03;;;-145.69;85.09
1726;BME280;41776;48.260;8.928;2023-09-19T08:09:41;52181.00;;;-145.69;85.80
1726;BME280;41776;48.260;8.928;2023-09-19T08:12:11;52184.97;;;-145.69;85.02
1726;BME280;41776;48.260;8.928;2023-09-19T08:14:38;52175.06;;;-145.69;87.58
1726;BME280;41776;48.260;8.928;2023-09-19T08:17:08;52179.03;;;-145.69;84.86
1726;BME280;41776;48.260;8.928;2023-09-19T08:19:34;52184.97;;;-145.69;83.70
1726;BME280;41776;48.260;8.928;2023-09-19T08:22:02;52163.19;;;-145.69;84.15
1726;BME280;41776;48.260;8.928;2023-09-19T08:24:29;52218.63;;;-145.69;84.36
1726;BME280;41776;48.260;8.928;2023-09-19T08:26:56;52163.19;;;-145.69;84.90
1726;BME280;41776;48.260;8.928;2023-09-19T08:29:26;52192.88;;;-145.69;86.52
1726;BME280;41776;48.260;8.928;2023-09-19T08:31:55;52143.38;;;-145.69;87.87
1726;BME280;41776;48.260;8.928;2023-09-19T08:34:23;52163.19;;;-145.69;84.51
1726;BME280;41776;48.260;8.928;2023-09-19T08:36:50;52157.25;;;-145.69;82.39
1726;BME280;41776;48.260;8.928;2023-09-19T08:39:20;52143.38;;;-145.69;81.11
1726;BME280;41776;48.260;8.928;2023-09-19T08:41:46;52186.94;;;-145.69;82.39
1726;BME280;41776;48.260;8.928;2023-09-19T08:44:13;52143.38;;;-145.69;81.96
1726;BME280;41776;48.260;8.928;2023-09-19T08:46:43;52179.03;;;-145.69;83.47
1726;BME280;41776;48.260;8.928;2023-09-19T08:49:18;52163.19;;;-145.69;83.73
1726;BME280;41776;48.260;8.928;2023-09-19T08:51:54;52155.25;;;-145.69;82.57
1726;BME280;41776;48.260;8.928;2023-09-19T08:54:32;52181.00;;;-145.69;82.13
1726;BME280;41776;48.260;8.928;2023-09-19T08:57:07;52165.16;;;-145.69;82.60
1726;BME280;41776;48.260;8.928;2023-09-19T08:59:37;52163.19;;;-145.69;82.43
1726;BME280;41776;48.260;8.928;2023-09-19T09:02:09;52149.31;;;-145.69;83.98
1726;BME280;41776;48.260;8.928;2023-09-19T09:04:39;52135.47;;;-145.69;85.18
1726;BME280;41776;48.260;8.928;2023-09-19T09:07:10;52135.47;;;-145.69;84.83
1726;BME280;41776;48.260;8.928;2023-09-19T09:09:38;52143.38;;;-145.69;83.18
1726;BME280;41776;48.260;8.928;2023-09-19T09:12:12;52149.31;;;-145.69;84.36
1726;BME280;41776;48.260;8.928;2023-09-19T09:14:44;52123.56;;;-145.69;87.22
1726;BME280;41776;48.260;8.928;2023-09-19T09:17:12;52109.72;;;-145.69;82.70
1726;BME280;41776;48.260;8.928;2023-09-19T09:19:39;52151.28;;;-145.69;79.44
1726;BME280;41776;48.260;8.928;2023-09-19T09:22:09;52115.66;;;-145.69;82.70
1726;BME280;41776;48.260;8.928;2023-09-19T09:24:36;52151.28;;;-145.69;80.25
1726;BME280;41776;48.260;8.928;2023-09-19T09:27:05;52125.56;;;-145.69;83.29
1726;BME280;41776;48.260;8.928;2023-09-19T09:29:43;52068.13;;;-145.69;80.39
1726;BME280;41776;48.260;8.928;2023-09-19T09:32:23;52095.84;;;-145.69;79.13
1726;BME280;41776;48.260;8.928;2023-09-19T09:34:52;52082.00;;;-145.69;80.76
1726;BME280;41776;48.260;8.928;2023-09-19T09:37:23;52109.72;;;-145.69;81.07
1726;BME280;41776;48.260;8.928;2023-09-19T09:39:53;52111.69;;;-145.69;79.72
1726;BME280;41776;48.260;8.928;2023-09-19T09:42:30;52123.56;;;-145.69;79.07
1726;BME280;41776;48.260;8.928;2023-09-19T09:45:15;52089.91;;;-145.69;77.84
1726;BME280;41776;48.260;8.928;2023-09-19T09:47:43;52113.66;;;-145.69;80.32
1726;BME280;41776;48.260;8.928;2023-09-19T09:50:23;52127.53;;;-145.69;79.07
1726;BME280;41776;48.260;8.928;2023-09-19T09:52:55;52046.34;;;-145.69;73.98
1726;BME280;41776;48.260;8.928;2023-09-19T09:56:01;52091.88;;;-145.69;71.58
1726;BME280;41776;48.260;8.928;2023-09-19T09:58:31;52087.94;;;-145.69;75.14
1726;BME280;41776;48.260;8.928;2023-09-19T10:00:58;52099.81;;;-145.69;72.17
1726;BME280;41776;48.260;8.928;2023-09-19T10:03:32;52107.72;;;-145.69;71.86
1726;BME280;41776;48.260;8.928;2023-09-19T10:06:04;52091.88;;;-145.69;75.07
1726;BME280;41776;48.260;8.928;2023-09-19T10:09:05;52097.84;;;-145.69;74.36
1726;BME280;41776;48.260;8.928;2023-09-19T10:11:41;52099.81;;;-145.69;74.91
1726;BME280;41776;48.260;8.928;2023-09-19T10:14:12;52111.69;;;-145.69;64.34
1726;BME280;41776;48.260;8.928;2023-09-19T10:16:40;52064.16;;;-145.69;71.59
1726;BME280;41776;48.260;8.928;2023-09-19T10:19:08;52056.25;;;-145.69;68.37
1726;BME280;41776;48.260;8.928;2023-09-19T10:21:36;52103.78;;;-145.69;69.52
1726;BME280;41776;48.260;8.928;2023-09-19T10:24:07;52115.66;;;-145.69;66.90
1726;BME280;41776;48.260;8.928;2023-09-19T10:26:36;52113.66;;;-145.69;71.16
1726;BME280;41776;48.260;8.928;2023-09-19T10:29:06;52119.63;;;-145.69;71.67
1726;BME280;41776;48.260;8.928;2023-09-19T10:31:36;52095.84;;;-145.69;72.88
1726;BME280;41776;48.260;8.928;2023-09-19T10:34:06;52095.84;;;-145.69;70.03
1726;BME280;41776;48.260;8.928;2023-09-19T10:36:36;52095.84;;;-145.69;69.37
1726;BME280;41776;48.260;8.928;2023-09-19T10:39:07;52115.66;;;-145.69;69.71
1726;BME280;41776;48.260;8.928;2023-09-19T10:41:37;52127.53;;;-145.69;65.63
1726;BME280;41776;48.260;8.928;2023-09-19T10:44:04;52103.78;;;-145.69;65.40
1726;BME280;41776;48.260;8.928;2023-09-19T10:46:31;52095.84;;;-145.69;64.95
1726;BME280;41776;48.260;8.928;2023-09-19T10:48:59;52082.00;;;-145.69;66.41
1726;BME280;41776;48.260;8.928;2023-09-19T10:51:29;52089.91;;;-145.69;65.08
1726;BME280;41776;48.260;8.928;2023-09-19T10:54:01;52091.88;;;-145.69;64.53
1726;BME280;41776;48.260;8.928;2023-09-19T10:56:35;52087.94;;;-145.69;66.53
1726;BME280;41776;48.260;8.928;2023-09-19T10:59:07;52078.03;;;-145.69;64.59
1726;BME280;41776;48.260;8.928;2023-09-19T11:01:45;52072.09;;;-145.69;62.74
1726;BME280;41776;48.260;8.928;2023-09-19T11:04:26;52091.88;;;-145.69;56.47
1726;BME280;41776;48.260;8.928;2023-09-19T11:07:00;52080.00;;;-145.69;55.94
1726;BME280;41776;48.260;8.928;2023-09-19T11:09:43;52060.22;;;-145.69;57.33
1726;BME280;41776;48.260;8.928;2023-09-19T11:12:12;52070.09;;;-145.69;57.63
1726;BME280;41776;48.260;8.928;2023-09-19T11:14:41;52048.31;;;-145.69;54.09
1726;BME280;41776;48.260;8.928;2023-09-19T11:17:32;52076.03;;;-145.69;52.00
1726;BME280;41776;48.260;8.928;2023-09-19T11:20:23;52018.63;;;-145.69;53.31
1726;BME280;41776;48.260;8.928;2023-09-19T11:23:24;52036.44;;;-145.69;51.39
1726;BME280;41776;48.260;8.928;2023-09-19T11:25:53;52044.38;;;-145.69;46.98
1726;BME280;41776;48.260;8.928;2023-09-19T11:28:31;52046.34;;;-145.69;49.68
1726;BME280;41776;48.260;8.928;2023-09-19T11:30:58;52048.31;;;-145.69;47.58
1726;BME280;41776;48.260;8.928;2023-09-19T11:33:26;52082.00;;;-145.69;49.21
1726;BME280;41776;48.260;8.928;2023-09-19T11:36:03;52048.31;;;-145.69;47.88
1726;BME280;41776;48.260;8.928;2023-09-19T11:41:38;52072.09;;;-145.69;48.39
1726;BME280;41776;48.260;8.928;2023-09-19T11:44:36;52064.16;;;-145.69;46.71
1726;BME280;41776;48.260;8.928;2023-09-19T11:47:05;52087.94;;;-145.69;46.74
1726;BME280;41776;48.260;8.928;2023-09-19T11:49:41;52054.25;;;-145.69;47.25
1726;BME280;41776;48.260;8.928;2023-09-19T11:52:08;52046.34;;;-145.69;44.11
1726;BME280;41776;48.260;8.928;2023-09-19T11:54:43;52082.00;;;-145.69;45.17
1726;BME280;41776;48.260;8.928;2023-09-19T11:57:22;52052.28;;;-145.69;44.14
1726;BME280;41776;48.260;8.928;2023-09-19T11:59:50;52048.31;;;-145.69;45.31
1726;BME280;41776;48.260;8.928;2023-09-19T12:02:37;52030.50;;;-145.69;45.26
1726;BME280;41776;48.260;8.928;2023-09-19T12:05:08;52050.31;;;-145.69;43.73
1726;BME280;41776;48.260;8.928;2023-09-19T12:07:48;52044.38;;;-145.69;42.79
1726;BME280;41776;48.260;8.928;2023-09-19T12:10:18;52010.69;;;-145.69;41.88
1726;BME280;41776;48.260;8.928;2023-09-19T12:12:48;52046.34;;;-145.69;42.27
1726;BME280;41776;48.260;8.928;2023-09-19T12:15:22;52048.31;;;-145.69;43.38
1726;BME280;41776;48.260;8.928;2023-09-19T12:17:54;52048.31;;;-145.69;43.77
1726;BME280;41776;48.260;8.928;2023-09-19T12:20:21;52022.59;;;-145.69;43.56
1726;BME280;41776;48.260;8.928;2023-09-19T12:22:47;52032.47;;;-145.69;41.83
1726;BME280;41776;48.260;8.928;2023-09-19T12:25:15;52038.44;;;-145.69;43.65
1726;BME280;41776;48.260;8.928;2023-09-19T12:27:48;52012.69;;;-145.69;42.31
1726;BME280;41776;48.260;8.928;2023-09-19T12:30:17;52048.31;;;-145.69;42.54
1726;BME280;41776;48.260;8.928;2023-09-19T12:32:45;52064.16;;;-145.69;41.07
1726;BME280;41776;48.260;8.928;2023-09-19T12:35:26;52083.97;;;-145.69;42.28
1726;BME280;41776;48.260;8.928;2023-09-19T12:37:59;52048.31;;;-145.69;44.12
1726;BME280;41776;48.260;8.928;2023-09-19T12:40:26;52024.56;;;-145.69;43.45
1726;BME280;41776;48.260;8.928;2023-09-19T12:42:54;52036.44;;;-145.69;41.36
1726;BME280;41776;48.260;8.928;2023-09-19T12:45:23;52020.59;;;-145.69;40.91
1726;BME280;41776;48.260;8.928;2023-09-19T12:48:18;52028.53;;;-145.69;41.84
1726;BME280;41776;48.260;8.928;2023-09-19T12:51:00;52022.59;;;-145.69;43.10
1726;BME280;41776;48.260;8.928;2023-09-19T12:53:29;52038.44;;;-145.69;42.33
1726;BME280;41776;48.260;8.928;2023-09-19T12:55:58;52050.31;;;-145.69;40.77
1726;BME280;41776;48.260;8.928;2023-09-19T12:58:25;52020.59;;;-145.69;40.62
1726;BME280;41776;48.260;8.928;2023-09-19T13:01:02;52020.59;;;-145.69;38.91
1726;BME280;41776;48.260;8.928;2023-09-19T13:03:40;52000.81;;;-145.69;40.37
1726;BME280;41776;48.260;8.928;2023-09-19T13:06:10;52020.59;;;-145.69;40.34
1726;BME280;41776;48.260;8.928;2023-09-19T13:08:39;52002.78;;;-145.69;40.19
1726;BME280;41776;48.260;8.928;2023-09-19T13:11:09;52006.75;;;-145.69;40.75